sensor_id;sensor_type;location;lat;lon;timestamp;P1;durP1;ratioP1;P2;durP2;ratioP2
20322;SDS011;10319;52.206;20.996;2022-10-16T00:00:38;16.33;;;6.17;;
20322;SDS011;10319;52.206;20.996;2022-10-16T00:03:03;17.17;;;6.60;;
20322;SDS011;10319;52.206;20.996;2022-10-16T00:05:29;15.90;;;6.50;;
20322;SDS011;10319;52.206;20.996;2022-10-16T00:07:54;15.33;;;5.87;;
20322;SDS011;10319;52.206;20.996;2022-10-16T00:10:19;15.40;;;6.10;;
20322;SDS011;10319;52.206;20.996;2022-10-16T00:12:45;17.30;;;6.57;;
20322;SDS011;10319;52.206;20.996;2022-10-16T00:15:10;17.87;;;6.30;;
20322;SDS011;10319;52.206;20.996;2022-10-16T00:17:36;17.37;;;6.83;;
20322;SDS011;10319;52.206;20.996;2022-10-16T00:20:01;17.33;;;6.50;;
20322;SDS011;10319;52.206;20.996;2022-10-16T00:22:26;18.00;;;7.30;;
20322;SDS011;10319;52.206;20.996;2022-10-16T00:24:52;17.43;;;6.90;;
20322;SDS011;10319;52.206;20.996;2022-10-16T00:27:17;19.57;;;7.70;;
20322;SDS011;10319;52.206;20.996;2022-10-16T00:29:42;17.67;;;7.47;;
20322;SDS011;10319;52.206;20.996;2022-10-16T00:32:08;17.60;;;7.03;;
20322;SDS011;10319;52.206;20.996;2022-10-16T00:34:33;21.13;;;7.77;;
20322;SDS011;10319;52.206;20.996;2022-10-16T00:36:58;18.27;;;7.63;;
20322;SDS011;10319;52.206;20.996;2022-10-16T00:39:23;18.73;;;7.47;;
20322;SDS011;10319;52.206;20.996;2022-10-16T00:41:49;18.67;;;7.40;;
20322;SDS011;10319;52.206;20.996;2022-10-16T00:46:59;18.10;;;7.77;;
20322;SDS011;10319;52.206;20.996;2022-10-16T00:49:24;19.80;;;8.53;;
20322;SDS011;10319;52.206;20.996;2022-10-16T00:51:50;19.13;;;8.23;;
20322;SDS011;10319;52.206;20.996;2022-10-16T00:54:17;22.20;;;8.97;;
20322;SDS011;10319;52.206;20.996;2022-10-16T00:56:43;20.73;;;8.43;;
20322;SDS011;10319;52.206;20.996;2022-10-16T00:59:18;19.50;;;8.57;;
20322;SDS011;10319;52.206;20.996;2022-10-16T01:01:43;21.03;;;9.13;;
20322;SDS011;10319;52.206;20.996;2022-10-16T01:04:08;20.50;;;9.13;;
20322;SDS011;10319;52.206;20.996;2022-10-16T01:06:40;19.37;;;8.60;;
20322;SDS011;10319;52.206;20.996;2022-10-16T01:12:09;21.20;;;8.90;;
20322;SDS011;10319;52.206;20.996;2022-10-16T01:14:40;20.83;;;9.10;;
20322;SDS011;10319;52.206;20.996;2022-10-16T01:17:10;19.03;;;8.53;;
20322;SDS011;10319;52.206;20.996;2022-10-16T01:22:20;21.07;;;9.13;;
20322;SDS011;10319;52.206;20.996;2022-10-16T01:24:48;20.77;;;8.37;;
20322;SDS011;10319;52.206;20.996;2022-10-16T01:27:19;21.73;;;9.37;;
20322;SDS011;10319;52.206;20.996;2022-10-16T01:30:02;21.73;;;8.87;;
20322;SDS011;10319;52.206;20.996;2022-10-16T01:32:44;20.57;;;8.50;;
20322;SDS011;10319;52.206;20.996;2022-10-16T01:37:38;20.63;;;8.63;;
20322;SDS011;10319;52.206;20.996;2022-10-16T01:40:06;19.00;;;8.37;;
20322;SDS011;10319;52.206;20.996;2022-10-16T01:42:34;19.83;;;8.80;;
20322;SDS011;10319;52.206;20.996;2022-10-16T01:45:00;20.33;;;8.63;;
20322;SDS011;10319;52.206;20.996;2022-10-16T01:47:26;21.87;;;9.20;;
20322;SDS011;10319;52.206;20.996;2022-10-16T01:49:52;19.80;;;8.00;;
20322;SDS011;10319;52.206;20.996;2022-10-16T01:52:19;18.53;;;7.70;;
20322;SDS011;10319;52.206;20.996;2022-10-16T01:54:47;20.50;;;8.60;;
20322;SDS011;10319;52.206;20.996;2022-10-16T01:57:13;21.67;;;8.70;;
20322;SDS011;10319;52.206;20.996;2022-10-16T01:59:41;20.50;;;9.17;;
20322;SDS011;10319;52.206;20.996;2022-10-16T02:02:09;21.93;;;9.73;;
20322;SDS011;10319;52.206;20.996;2022-10-16T02:04:37;21.47;;;9.17;;
20322;SDS011;10319;52.206;20.996;2022-10-16T02:07:03;20.53;;;9.73;;
20322;SDS011;10319;52.206;20.996;2022-10-16T02:09:29;21.50;;;9.00;;
20322;SDS011;10319;52.206;20.996;2022-10-16T02:11:54;21.43;;;8.73;;
20322;SDS011;10319;52.206;20.996;2022-10-16T02:14:22;20.53;;;8.70;;
20322;SDS011;10319;52.206;20.996;2022-10-16T02:16:49;22.27;;;10.00;;
20322;SDS011;10319;52.206;20.996;2022-10-16T02:19:15;19.83;;;8.93;;
20322;SDS011;10319;52.206;20.996;2022-10-16T02:21:53;21.30;;;8.90;;
20322;SDS011;10319;52.206;20.996;2022-10-16T02:24:23;19.73;;;8.87;;
20322;SDS011;10319;52.206;20.996;2022-10-16T02:27:03;22.40;;;9.57;;
20322;SDS011;10319;52.206;20.996;2022-10-16T02:29:28;22.23;;;9.73;;
20322;SDS011;10319;52.206;20.996;2022-10-16T02:31:55;19.40;;;8.23;;
20322;SDS011;10319;52.206;20.996;2022-10-16T02:34:22;21.97;;;9.13;;
20322;SDS011;10319;52.206;20.996;2022-10-16T02:36:49;19.87;;;8.80;;
20322;SDS011;10319;52.206;20.996;2022-10-16T02:39:16;19.77;;;8.70;;
20322;SDS011;10319;52.206;20.996;2022-10-16T02:41:41;19.90;;;8.43;;
20322;SDS011;10319;52.206;20.996;2022-10-16T02:44:06;17.93;;;7.57;;
20322;SDS011;10319;52.206;20.996;2022-10-16T02:46:31;20.43;;;8.77;;
20322;SDS011;10319;52.206;20.996;2022-10-16T02:48:57;23.23;;;9.03;;
20322;SDS011;10319;52.206;20.996;2022-10-16T02:51:22;20.27;;;9.13;;
20322;SDS011;10319;52.206;20.996;2022-10-16T02:53:47;20.80;;;8.90;;
20322;SDS011;10319;52.206;20.996;2022-10-16T02:56:12;21.17;;;9.03;;
20322;SDS011;10319;52.206;20.996;2022-10-16T02:58:38;20.27;;;9.03;;
20322;SDS011;10319;52.206;20.996;2022-10-16T03:01:03;21.57;;;9.37;;
20322;SDS011;10319;52.206;20.996;2022-10-16T03:03:28;20.70;;;9.00;;
20322;SDS011;10319;52.206;20.996;2022-10-16T03:05:53;21.50;;;9.20;;
20322;SDS011;10319;52.206;20.996;2022-10-16T03:08:19;19.27;;;8.20;;
20322;SDS011;10319;52.206;20.996;2022-10-16T03:10:48;23.07;;;10.10;;
20322;SDS011;10319;52.206;20.996;2022-10-16T03:13:13;18.77;;;8.30;;
20322;SDS011;10319;52.206;20.996;2022-10-16T03:15:38;19.57;;;8.40;;
20322;SDS011;10319;52.206;20.996;2022-10-16T03:18:04;19.97;;;9.17;;
20322;SDS011;10319;52.206;20.996;2022-10-16T03:20:29;19.67;;;8.87;;
20322;SDS011;10319;52.206;20.996;2022-10-16T03:22:54;21.00;;;9.43;;
20322;SDS011;10319;52.206;20.996;2022-10-16T03:25:19;19.30;;;8.40;;
20322;SDS011;10319;52.206;20.996;2022-10-16T03:27:44;20.67;;;8.70;;
20322;SDS011;10319;52.206;20.996;2022-10-16T03:30:10;21.20;;;9.20;;
20322;SDS011;10319;52.206;20.996;2022-10-16T03:32:35;23.47;;;8.77;;
20322;SDS011;10319;52.206;20.996;2022-10-16T03:35:00;19.77;;;8.80;;
20322;SDS011;10319;52.206;20.996;2022-10-16T03:37:26;21.00;;;8.90;;
20322;SDS011;10319;52.206;20.996;2022-10-16T03:39:51;20.10;;;9.13;;
20322;SDS011;10319;52.206;20.996;2022-10-16T03:42:16;19.10;;;8.53;;
20322;SDS011;10319;52.206;20.996;2022-10-16T03:44:41;21.57;;;9.17;;
20322;SDS011;10319;52.206;20.996;2022-10-16T03:47:07;18.77;;;8.23;;
20322;SDS011;10319;52.206;20.996;2022-10-16T03:49:32;20.07;;;8.87;;
20322;SDS011;10319;52.206;20.996;2022-10-16T03:51:57;21.23;;;8.90;;
20322;SDS011;10319;52.206;20.996;2022-10-16T03:54:22;19.93;;;8.93;;
20322;SDS011;10319;52.206;20.996;2022-10-16T03:56:48;22.17;;;9.27;;
20322;SDS011;10319;52.206;20.996;2022-10-16T03:59:13;20.37;;;8.83;;
20322;SDS011;10319;52.206;20.996;2022-10-16T04:01:38;20.60;;;8.63;;
20322;SDS011;10319;52.206;20.996;2022-10-16T04:04:04;20.60;;;8.80;;
20322;SDS011;10319;52.206;20.996;2022-10-16T04:06:29;20.87;;;8.70;;
20322;SDS011;10319;52.206;20.996;2022-10-16T04:08:54;19.07;;;8.83;;
20322;SDS011;10319;52.206;20.996;2022-10-16T04:11:20;21.20;;;9.00;;
20322;SDS011;10319;52.206;20.996;2022-10-16T04:13:45;19.67;;;8.30;;
20322;SDS011;10319;52.206;20.996;2022-10-16T04:16:10;20.00;;;8.57;;
20322;SDS011;10319;52.206;20.996;2022-10-16T04:18:35;21.17;;;8.57;;
20322;SDS011;10319;52.206;20.996;2022-10-16T04:21:04;20.57;;;8.10;;
20322;SDS011;10319;52.206;20.996;2022-10-16T04:23:30;19.43;;;8.43;;
20322;SDS011;10319;52.206;20.996;2022-10-16T04:25:55;19.33;;;8.43;;
20322;SDS011;10319;52.206;20.996;2022-10-16T04:28:20;19.47;;;8.70;;
20322;SDS011;10319;52.206;20.996;2022-10-16T04:30:45;19.60;;;8.50;;
20322;SDS011;10319;52.206;20.996;2022-10-16T04:33:11;20.53;;;8.70;;
20322;SDS011;10319;52.206;20.996;2022-10-16T04:35:37;18.67;;;8.27;;
20322;SDS011;10319;52.206;20.996;2022-10-16T04:38:03;21.07;;;8.33;;
20322;SDS011;10319;52.206;20.996;2022-10-16T04:40:28;22.77;;;9.07;;
20322;SDS011;10319;52.206;20.996;2022-10-16T04:42:53;20.33;;;8.23;;
20322;SDS011;10319;52.206;20.996;2022-10-16T04:45:18;18.73;;;8.07;;
20322;SDS011;10319;52.206;20.996;2022-10-16T04:47:44;18.57;;;8.40;;
20322;SDS011;10319;52.206;20.996;2022-10-16T04:50:09;18.13;;;7.90;;
20322;SDS011;10319;52.206;20.996;2022-10-16T04:52:34;20.53;;;8.57;;
20322;SDS011;10319;52.206;20.996;2022-10-16T04:54:59;19.60;;;8.30;;
20322;SDS011;10319;52.206;20.996;2022-10-16T04:57:27;21.77;;;9.23;;
20322;SDS011;10319;52.206;20.996;2022-10-16T04:59:52;20.57;;;8.67;;
20322;SDS011;10319;52.206;20.996;2022-10-16T05:02:18;21.53;;;8.57;;
20322;SDS011;10319;52.206;20.996;2022-10-16T05:04:43;18.43;;;8.27;;
20322;SDS011;10319;52.206;20.996;2022-10-16T05:07:08;19.47;;;8.40;;
20322;SDS011;10319;52.206;20.996;2022-10-16T05:09:33;20.30;;;8.50;;
20322;SDS011;10319;52.206;20.996;2022-10-16T05:11:59;19.53;;;8.17;;
20322;SDS011;10319;52.206;20.996;2022-10-16T05:14:24;19.80;;;8.40;;
20322;SDS011;10319;52.206;20.996;2022-10-16T05:16:49;18.53;;;8.10;;
20322;SDS011;10319;52.206;20.996;2022-10-16T05:19:15;18.80;;;8.40;;
20322;SDS011;10319;52.206;20.996;2022-10-16T05:21:40;21.07;;;8.87;;
20322;SDS011;10319;52.206;20.996;2022-10-16T05:24:06;19.53;;;8.40;;
20322;SDS011;10319;52.206;20.996;2022-10-16T05:26:31;19.23;;;8.23;;
20322;SDS011;10319;52.206;20.996;2022-10-16T05:28:56;19.53;;;8.83;;
20322;SDS011;10319;52.206;20.996;2022-10-16T05:31:21;19.30;;;8.50;;
20322;SDS011;10319;52.206;20.996;2022-10-16T05:33:47;20.10;;;8.30;;
20322;SDS011;10319;52.206;20.996;2022-10-16T05:36:12;20.53;;;8.33;;
20322;SDS011;10319;52.206;20.996;2022-10-16T05:38:38;18.37;;;8.50;;
20322;SDS011;10319;52.206;20.996;2022-10-16T05:41:03;19.97;;;8.47;;
20322;SDS011;10319;52.206;20.996;2022-10-16T05:43:29;20.00;;;8.50;;
20322;SDS011;10319;52.206;20.996;2022-10-16T05:48:23;20.03;;;8.73;;
20322;SDS011;10319;52.206;20.996;2022-10-16T05:50:48;20.50;;;8.50;;
20322;SDS011;10319;52.206;20.996;2022-10-16T05:53:20;19.90;;;8.17;;
20322;SDS011;10319;52.206;20.996;2022-10-16T05:55:53;18.13;;;7.93;;
20322;SDS011;10319;52.206;20.996;2022-10-16T05:58:19;19.33;;;8.03;;
20322;SDS011;10319;52.206;20.996;2022-10-16T06:00:44;20.47;;;8.40;;
20322;SDS011;10319;52.206;20.996;2022-10-16T06:03:09;18.87;;;7.63;;
20322;SDS011;10319;52.206;20.996;2022-10-16T06:05:35;18.63;;;8.47;;
20322;SDS011;10319;52.206;20.996;2022-10-16T06:08:00;18.97;;;8.20;;
20322;SDS011;10319;52.206;20.996;2022-10-16T06:10:25;19.40;;;8.23;;
20322;SDS011;10319;52.206;20.996;2022-10-16T06:12:50;19.73;;;8.10;;
20322;SDS011;10319;52.206;20.996;2022-10-16T06:15:16;19.87;;;8.20;;
20322;SDS011;10319;52.206;20.996;2022-10-16T06:17:41;20.37;;;8.33;;
20322;SDS011;10319;52.206;20.996;2022-10-16T06:20:06;19.13;;;7.97;;
20322;SDS011;10319;52.206;20.996;2022-10-16T06:22:31;19.43;;;8.23;;
20322;SDS011;10319;52.206;20.996;2022-10-16T06:24:57;18.93;;;8.30;;
20322;SDS011;10319;52.206;20.996;2022-10-16T06:27:22;17.87;;;7.93;;
20322;SDS011;10319;52.206;20.996;2022-10-16T06:29:47;19.33;;;8.07;;
20322;SDS011;10319;52.206;20.996;2022-10-16T06:32:12;19.50;;;8.20;;
20322;SDS011;10319;52.206;20.996;2022-10-16T06:34:38;17.63;;;7.40;;
20322;SDS011;10319;52.206;20.996;2022-10-16T06:37:05;19.83;;;8.03;;
20322;SDS011;10319;52.206;20.996;2022-10-16T06:39:30;18.00;;;7.63;;
20322;SDS011;10319;52.206;20.996;2022-10-16T06:41:55;18.77;;;8.00;;
20322;SDS011;10319;52.206;20.996;2022-10-16T06:44:21;18.30;;;7.60;;
20322;SDS011;10319;52.206;20.996;2022-10-16T06:46:46;16.97;;;7.20;;
20322;SDS011;10319;52.206;20.996;2022-10-16T06:49:11;18.07;;;7.90;;
20322;SDS011;10319;52.206;20.996;2022-10-16T06:51:36;17.33;;;7.27;;
20322;SDS011;10319;52.206;20.996;2022-10-16T06:54:05;17.90;;;7.67;;
20322;SDS011;10319;52.206;20.996;2022-10-16T06:56:31;17.87;;;7.30;;
20322;SDS011;10319;52.206;20.996;2022-10-16T06:58:57;18.80;;;7.50;;
20322;SDS011;10319;52.206;20.996;2022-10-16T07:01:22;18.33;;;7.90;;
20322;SDS011;10319;52.206;20.996;2022-10-16T07:03:48;18.67;;;7.83;;
20322;SDS011;10319;52.206;20.996;2022-10-16T07:06:15;18.50;;;7.27;;
20322;SDS011;10319;52.206;20.996;2022-10-16T07:08:41;19.90;;;7.27;;
20322;SDS011;10319;52.206;20.996;2022-10-16T07:11:07;17.57;;;7.17;;
20322;SDS011;10319;52.206;20.996;2022-10-16T07:13:36;18.37;;;6.90;;
20322;SDS011;10319;52.206;20.996;2022-10-16T07:16:08;17.67;;;7.53;;
20322;SDS011;10319;52.206;20.996;2022-10-16T07:18:33;15.63;;;6.65;;
20322;SDS011;10319;52.206;20.996;2022-10-16T07:21:05;17.63;;;7.10;;
20322;SDS011;10319;52.206;20.996;2022-10-16T07:23:31;17.57;;;6.80;;
20322;SDS011;10319;52.206;20.996;2022-10-16T07:25:56;20.17;;;7.40;;
20322;SDS011;10319;52.206;20.996;2022-10-16T07:28:21;17.30;;;6.88;;
20322;SDS011;10319;52.206;20.996;2022-10-16T07:30:47;16.67;;;7.13;;
20322;SDS011;10319;52.206;20.996;2022-10-16T07:33:12;16.73;;;6.90;;
20322;SDS011;10319;52.206;20.996;2022-10-16T07:35:37;16.95;;;6.78;;
20322;SDS011;10319;52.206;20.996;2022-10-16T07:38:02;16.80;;;7.03;;
20322;SDS011;10319;52.206;20.996;2022-10-16T07:40:27;17.23;;;7.35;;
20322;SDS011;10319;52.206;20.996;2022-10-16T07:42:53;16.20;;;7.07;;
20322;SDS011;10319;52.206;20.996;2022-10-16T07:45:18;21.27;;;7.57;;
20322;SDS011;10319;52.206;20.996;2022-10-16T07:47:43;16.08;;;6.93;;
20322;SDS011;10319;52.206;20.996;2022-10-16T07:50:08;15.85;;;6.55;;
20322;SDS011;10319;52.206;20.996;2022-10-16T07:52:34;17.50;;;7.05;;
20322;SDS011;10319;52.206;20.996;2022-10-16T07:54:59;17.10;;;6.90;;
20322;SDS011;10319;52.206;20.996;2022-10-16T07:57:24;16.23;;;6.60;;
20322;SDS011;10319;52.206;20.996;2022-10-16T07:59:49;17.60;;;6.93;;
20322;SDS011;10319;52.206;20.996;2022-10-16T08:02:14;17.65;;;6.93;;
20322;SDS011;10319;52.206;20.996;2022-10-16T08:04:40;16.38;;;6.78;;
20322;SDS011;10319;52.206;20.996;2022-10-16T08:07:06;16.52;;;6.65;;
20322;SDS011;10319;52.206;20.996;2022-10-16T08:09:31;15.57;;;5.97;;
20322;SDS011;10319;52.206;20.996;2022-10-16T08:11:56;17.20;;;6.88;;
20322;SDS011;10319;52.206;20.996;2022-10-16T08:14:22;16.10;;;6.30;;
20322;SDS011;10319;52.206;20.996;2022-10-16T08:16:47;17.80;;;6.43;;
20322;SDS011;10319;52.206;20.996;2022-10-16T08:19:12;15.57;;;6.03;;
20322;SDS011;10319;52.206;20.996;2022-10-16T08:21:38;14.70;;;6.05;;
20322;SDS011;10319;52.206;20.996;2022-10-16T08:24:03;16.67;;;6.53;;
20322;SDS011;10319;52.206;20.996;2022-10-16T08:26:28;18.23;;;6.78;;
20322;SDS011;10319;52.206;20.996;2022-10-16T08:28:54;16.42;;;6.75;;
20322;SDS011;10319;52.206;20.996;2022-10-16T08:31:19;15.98;;;6.28;;
20322;SDS011;10319;52.206;20.996;2022-10-16T08:33:45;16.55;;;6.07;;
20322;SDS011;10319;52.206;20.996;2022-10-16T08:36:12;15.65;;;6.13;;
20322;SDS011;10319;52.206;20.996;2022-10-16T08:38:38;16.42;;;6.30;;
20322;SDS011;10319;52.206;20.996;2022-10-16T08:46:26;15.13;;;5.65;;
20322;SDS011;10319;52.206;20.996;2022-10-16T08:48:56;16.17;;;6.05;;
20322;SDS011;10319;52.206;20.996;2022-10-16T08:51:24;14.55;;;5.63;;
20322;SDS011;10319;52.206;20.996;2022-10-16T08:53:54;14.45;;;5.88;;
20322;SDS011;10319;52.206;20.996;2022-10-16T08:56:20;15.77;;;5.25;;
20322;SDS011;10319;52.206;20.996;2022-10-16T08:58:46;17.70;;;5.65;;
20322;SDS011;10319;52.206;20.996;2022-10-16T09:01:13;15.18;;;5.72;;
20322;SDS011;10319;52.206;20.996;2022-10-16T09:21:30;16.58;;;5.28;;
20322;SDS011;10319;52.206;20.996;2022-10-16T09:24:12;14.27;;;5.53;;
20322;SDS011;10319;52.206;20.996;2022-10-16T09:26:38;14.90;;;5.15;;
20322;SDS011;10319;52.206;20.996;2022-10-16T09:29:03;15.63;;;5.53;;
20322;SDS011;10319;52.206;20.996;2022-10-16T09:31:28;13.98;;;5.10;;
20322;SDS011;10319;52.206;20.996;2022-10-16T09:33:55;14.63;;;5.40;;
20322;SDS011;10319;52.206;20.996;2022-10-16T09:36:22;14.93;;;5.30;;
20322;SDS011;10319;52.206;20.996;2022-10-16T09:38:48;14.60;;;5.00;;
20322;SDS011;10319;52.206;20.996;2022-10-16T09:43:40;14.68;;;5.45;;
20322;SDS011;10319;52.206;20.996;2022-10-16T09:46:07;15.35;;;5.47;;
20322;SDS011;10319;52.206;20.996;2022-10-16T09:48:37;14.52;;;5.53;;
20322;SDS011;10319;52.206;20.996;2022-10-16T09:51:04;14.48;;;5.55;;
20322;SDS011;10319;52.206;20.996;2022-10-16T09:53:39;16.15;;;5.45;;
20322;SDS011;10319;52.206;20.996;2022-10-16T09:56:05;15.40;;;5.72;;
20322;SDS011;10319;52.206;20.996;2022-10-16T09:58:31;14.27;;;5.47;;
20322;SDS011;10319;52.206;20.996;2022-10-16T10:00:58;15.15;;;5.15;;
20322;SDS011;10319;52.206;20.996;2022-10-16T10:03:32;13.48;;;5.30;;
20322;SDS011;10319;52.206;20.996;2022-10-16T10:06:06;14.05;;;5.15;;
20322;SDS011;10319;52.206;20.996;2022-10-16T10:08:31;15.25;;;5.45;;
20322;SDS011;10319;52.206;20.996;2022-10-16T10:10:57;15.65;;;5.30;;
20322;SDS011;10319;52.206;20.996;2022-10-16T10:13:22;14.63;;;5.50;;
20322;SDS011;10319;52.206;20.996;2022-10-16T10:15:51;14.13;;;4.85;;
20322;SDS011;10319;52.206;20.996;2022-10-16T10:18:20;13.43;;;4.75;;
20322;SDS011;10319;52.206;20.996;2022-10-16T10:20:46;14.63;;;4.90;;
20322;SDS011;10319;52.206;20.996;2022-10-16T10:23:22;13.50;;;4.65;;
20322;SDS011;10319;52.206;20.996;2022-10-16T10:35:45;13.68;;;4.80;;
20322;SDS011;10319;52.206;20.996;2022-10-16T10:40:54;14.98;;;5.25;;
20322;SDS011;10319;52.206;20.996;2022-10-16T10:43:37;13.70;;;4.80;;
20322;SDS011;10319;52.206;20.996;2022-10-16T10:46:04;14.40;;;4.80;;
20322;SDS011;10319;52.206;20.996;2022-10-16T10:48:44;14.02;;;5.28;;
20322;SDS011;10319;52.206;20.996;2022-10-16T10:51:16;12.50;;;4.60;;
20322;SDS011;10319;52.206;20.996;2022-10-16T10:53:51;13.02;;;4.78;;
20322;SDS011;10319;52.206;20.996;2022-10-16T11:01:51;15.23;;;4.93;;
20322;SDS011;10319;52.206;20.996;2022-10-16T11:07:13;14.27;;;5.30;;
20322;SDS011;10319;52.206;20.996;2022-10-16T11:09:36;14.88;;;5.22;;
20322;SDS011;10319;52.206;20.996;2022-10-16T11:14:35;16.25;;;4.78;;
20322;SDS011;10319;52.206;20.996;2022-10-16T11:17:10;14.77;;;5.07;;
20322;SDS011;10319;52.206;20.996;2022-10-16T11:19:39;12.93;;;4.70;;
20322;SDS011;10319;52.206;20.996;2022-10-16T11:22:12;16.42;;;4.85;;
20322;SDS011;10319;52.206;20.996;2022-10-16T11:25:25;14.48;;;5.07;;
20322;SDS011;10319;52.206;20.996;2022-10-16T11:27:50;15.18;;;4.90;;
20322;SDS011;10319;52.206;20.996;2022-10-16T11:30:18;12.25;;;4.25;;
20322;SDS011;10319;52.206;20.996;2022-10-16T11:35:53;13.90;;;4.85;;
20322;SDS011;10319;52.206;20.996;2022-10-16T11:40:52;14.57;;;4.32;;
20322;SDS011;10319;52.206;20.996;2022-10-16T11:43:25;14.48;;;4.38;;
20322;SDS011;10319;52.206;20.996;2022-10-16T11:45:51;15.02;;;4.78;;
20322;SDS011;10319;52.206;20.996;2022-10-16T11:55:58;13.10;;;4.50;;
20322;SDS011;10319;52.206;20.996;2022-10-16T11:58:31;15.15;;;4.78;;
20322;SDS011;10319;52.206;20.996;2022-10-16T12:01:05;13.40;;;4.85;;
20322;SDS011;10319;52.206;20.996;2022-10-16T12:03:42;13.85;;;4.70;;
20322;SDS011;10319;52.206;20.996;2022-10-16T12:06:14;14.20;;;4.88;;
20322;SDS011;10319;52.206;20.996;2022-10-16T12:08:45;14.27;;;4.78;;
20322;SDS011;10319;52.206;20.996;2022-10-16T12:13:45;12.18;;;4.28;;
20322;SDS011;10319;52.206;20.996;2022-10-16T12:18:42;11.43;;;3.92;;
20322;SDS011;10319;52.206;20.996;2022-10-16T12:21:08;15.25;;;4.47;;
20322;SDS011;10319;52.206;20.996;2022-10-16T12:23:38;13.82;;;4.88;;
20322;SDS011;10319;52.206;20.996;2022-10-16T12:26:04;13.50;;;4.40;;
20322;SDS011;10319;52.206;20.996;2022-10-16T12:28:30;14.70;;;4.60;;
20322;SDS011;10319;52.206;20.996;2022-10-16T12:31:00;12.85;;;4.28;;
20322;SDS011;10319;52.206;20.996;2022-10-16T12:33:27;13.82;;;4.35;;
20322;SDS011;10319;52.206;20.996;2022-10-16T12:35:53;12.73;;;4.00;;
20322;SDS011;10319;52.206;20.996;2022-10-16T12:38:25;13.65;;;4.82;;
20322;SDS011;10319;52.206;20.996;2022-10-16T12:40:56;13.10;;;4.22;;
20322;SDS011;10319;52.206;20.996;2022-10-16T12:43:36;13.57;;;4.70;;
20322;SDS011;10319;52.206;20.996;2022-10-16T12:48:31;13.98;;;5.05;;
20322;SDS011;10319;52.206;20.996;2022-10-16T12:50:56;13.55;;;4.80;;
20322;SDS011;10319;52.206;20.996;2022-10-16T12:53:25;14.25;;;4.88;;
20322;SDS011;10319;52.206;20.996;2022-10-16T13:01:21;13.30;;;4.85;;
20322;SDS011;10319;52.206;20.996;2022-10-16T13:06:37;14.35;;;4.75;;
20322;SDS011;10319;52.206;20.996;2022-10-16T13:09:08;13.35;;;4.07;;
20322;SDS011;10319;52.206;20.996;2022-10-16T13:11:49;13.57;;;4.57;;
20322;SDS011;10319;52.206;20.996;2022-10-16T13:19:53;13.38;;;4.65;;
20322;SDS011;10319;52.206;20.996;2022-10-16T13:25:02;13.90;;;4.72;;
20322;SDS011;10319;52.206;20.996;2022-10-16T13:30:00;13.13;;;4.32;;
20322;SDS011;10319;52.206;20.996;2022-10-16T13:32:26;13.38;;;4.28;;
20322;SDS011;10319;52.206;20.996;2022-10-16T13:34:52;12.65;;;4.18;;
20322;SDS011;10319;52.206;20.996;2022-10-16T13:37:19;14.57;;;4.30;;
20322;SDS011;10319;52.206;20.996;2022-10-16T13:39:45;12.27;;;4.35;;
20322;SDS011;10319;52.206;20.996;2022-10-16T13:42:13;12.48;;;4.55;;
20322;SDS011;10319;52.206;20.996;2022-10-16T13:44:40;13.45;;;4.15;;
20322;SDS011;10319;52.206;20.996;2022-10-16T13:47:14;13.07;;;4.35;;
20322;SDS011;10319;52.206;20.996;2022-10-16T13:49:40;14.68;;;4.32;;
20322;SDS011;10319;52.206;20.996;2022-10-16T13:52:05;13.55;;;4.43;;
20322;SDS011;10319;52.206;20.996;2022-10-16T13:54:30;12.88;;;4.30;;
20322;SDS011;10319;52.206;20.996;2022-10-16T13:56:56;15.48;;;4.50;;
20322;SDS011;10319;52.206;20.996;2022-10-16T13:59:25;12.68;;;4.38;;
20322;SDS011;10319;52.206;20.996;2022-10-16T14:01:52;14.95;;;4.18;;
20322;SDS011;10319;52.206;20.996;2022-10-16T14:04:19;13.73;;;4.53;;
20322;SDS011;10319;52.206;20.996;2022-10-16T14:06:44;17.45;;;5.80;;
20322;SDS011;10319;52.206;20.996;2022-10-16T14:11:44;13.07;;;4.30;;
20322;SDS011;10319;52.206;20.996;2022-10-16T14:14:11;15.38;;;5.57;;
20322;SDS011;10319;52.206;20.996;2022-10-16T14:16:37;13.77;;;4.70;;
20322;SDS011;10319;52.206;20.996;2022-10-16T14:19:05;12.50;;;4.22;;
20322;SDS011;10319;52.206;20.996;2022-10-16T14:21:35;12.85;;;4.20;;
20322;SDS011;10319;52.206;20.996;2022-10-16T14:24:12;13.70;;;4.93;;
20322;SDS011;10319;52.206;20.996;2022-10-16T14:26:41;14.02;;;4.20;;
20322;SDS011;10319;52.206;20.996;2022-10-16T14:29:13;12.38;;;4.32;;
20322;SDS011;10319;52.206;20.996;2022-10-16T14:31:39;13.02;;;4.57;;
20322;SDS011;10319;52.206;20.996;2022-10-16T14:34:21;12.98;;;4.53;;
20322;SDS011;10319;52.206;20.996;2022-10-16T14:36:49;13.90;;;5.15;;
20322;SDS011;10319;52.206;20.996;2022-10-16T14:39:17;13.43;;;4.22;;
20322;SDS011;10319;52.206;20.996;2022-10-16T14:41:45;14.60;;;5.15;;
20322;SDS011;10319;52.206;20.996;2022-10-16T14:44:11;12.30;;;4.20;;
20322;SDS011;10319;52.206;20.996;2022-10-16T14:46:38;13.35;;;4.50;;
20322;SDS011;10319;52.206;20.996;2022-10-16T14:49:15;14.63;;;4.32;;
20322;SDS011;10319;52.206;20.996;2022-10-16T14:51:41;13.32;;;4.63;;
20322;SDS011;10319;52.206;20.996;2022-10-16T14:54:08;13.48;;;4.63;;
20322;SDS011;10319;52.206;20.996;2022-10-16T14:56:45;14.25;;;4.80;;
20322;SDS011;10319;52.206;20.996;2022-10-16T14:59:44;12.65;;;4.35;;
20322;SDS011;10319;52.206;20.996;2022-10-16T15:02:08;13.80;;;4.78;;
20322;SDS011;10319;52.206;20.996;2022-10-16T15:04:38;13.18;;;4.45;;
20322;SDS011;10319;52.206;20.996;2022-10-16T15:07:03;13.02;;;4.43;;
20322;SDS011;10319;52.206;20.996;2022-10-16T15:09:28;14.00;;;4.88;;
20322;SDS011;10319;52.206;20.996;2022-10-16T15:11:53;14.18;;;4.70;;
20322;SDS011;10319;52.206;20.996;2022-10-16T15:14:19;12.90;;;4.65;;
20322;SDS011;10319;52.206;20.996;2022-10-16T15:16:44;14.32;;;4.70;;
20322;SDS011;10319;52.206;20.996;2022-10-16T15:19:10;15.52;;;4.90;;
20322;SDS011;10319;52.206;20.996;2022-10-16T15:21:36;14.15;;;5.05;;
20322;SDS011;10319;52.206;20.996;2022-10-16T15:24:01;14.48;;;5.07;;
20322;SDS011;10319;52.206;20.996;2022-10-16T15:26:27;14.48;;;5.00;;
20322;SDS011;10319;52.206;20.996;2022-10-16T15:28:52;15.27;;;4.82;;
20322;SDS011;10319;52.206;20.996;2022-10-16T15:31:18;13.27;;;4.82;;
20322;SDS011;10319;52.206;20.996;2022-10-16T15:33:43;14.02;;;4.60;;
20322;SDS011;10319;52.206;20.996;2022-10-16T15:36:12;15.23;;;5.07;;
20322;SDS011;10319;52.206;20.996;2022-10-16T15:38:37;11.85;;;4.45;;
20322;SDS011;10319;52.206;20.996;2022-10-16T15:41:03;14.23;;;5.05;;
20322;SDS011;10319;52.206;20.996;2022-10-16T15:43:28;14.27;;;4.80;;
20322;SDS011;10319;52.206;20.996;2022-10-16T15:46:01;13.98;;;5.07;;
20322;SDS011;10319;52.206;20.996;2022-10-16T15:48:27;13.25;;;4.28;;
20322;SDS011;10319;52.206;20.996;2022-10-16T15:50:52;13.90;;;4.53;;
20322;SDS011;10319;52.206;20.996;2022-10-16T15:53:17;15.02;;;4.82;;
20322;SDS011;10319;52.206;20.996;2022-10-16T15:55:42;13.80;;;4.68;;
20322;SDS011;10319;52.206;20.996;2022-10-16T15:58:08;13.55;;;4.63;;
20322;SDS011;10319;52.206;20.996;2022-10-16T16:00:33;14.80;;;4.47;;
20322;SDS011;10319;52.206;20.996;2022-10-16T16:02:58;14.73;;;5.15;;
20322;SDS011;10319;52.206;20.996;2022-10-16T16:05:24;14.63;;;5.03;;